createdAt,value
2023-03-10T00:01:10.230Z,5.69
2023-03-10T00:05:11.959Z,5.75
2023-03-10T00:09:14.721Z,5.78
2023-03-10T00:13:16.132Z,5.90
2023-03-10T00:17:17.566Z,5.95
2023-03-10T00:21:22.190Z,5.98
2023-03-10T00:25:24.963Z,6.00
2023-03-10T00:29:26.419Z,5.99
2023-03-10T00:33:29.425Z,5.95
2023-03-10T00:37:30.879Z,5.95
2023-03-10T00:41:37.742Z,6.08
2023-03-10T00:45:39.160Z,6.30
2023-03-10T00:49:40.656Z,6.30
2023-03-10T00:53:42.775Z,6.39
2023-03-10T00:57:45.542Z,6.44
2023-03-10T01:01:47.067Z,6.46
2023-03-10T01:05:48.543Z,6.49
2023-03-10T01:09:50.001Z,6.48
2023-03-10T01:13:53.644Z,6.49
2023-03-10T01:17:55.067Z,6.46
2023-03-10T01:21:56.556Z,6.45
2023-03-10T01:25:58.101Z,6.45
2023-03-10T01:30:00.896Z,6.56
2023-03-10T01:34:02.512Z,6.59
2023-03-10T01:38:05.244Z,6.65
2023-03-10T01:42:06.742Z,6.58
2023-03-10T01:46:34.311Z,6.59
2023-03-10T01:50:35.987Z,6.66
2023-03-10T01:54:44.030Z,6.67
2023-03-10T01:58:46.981Z,6.73
2023-03-10T02:02:55.642Z,6.76
2023-03-10T02:06:57.960Z,6.84
2023-03-10T02:11:01.187Z,6.67
2023-03-10T02:15:02.996Z,6.62
2023-03-10T02:19:12.235Z,6.62
2023-03-10T02:23:17.135Z,6.68
2023-03-10T02:27:22.270Z,6.69
2023-03-10T02:31:24.434Z,6.70
2023-03-10T02:35:25.985Z,6.77
2023-03-10T02:39:27.452Z,6.83
2023-03-10T02:43:33.332Z,6.80
2023-03-10T02:47:34.800Z,6.77
2023-03-10T02:51:40.562Z,6.85
2023-03-10T02:55:42.083Z,6.87
2023-03-10T02:59:44.873Z,6.93
2023-03-10T03:03:46.499Z,6.85
2023-03-10T03:07:47.994Z,6.94
2023-03-10T03:11:49.466Z,6.88
2023-03-10T03:15:52.296Z,6.78
2023-03-10T03:19:53.810Z,6.72
2023-03-10T03:23:55.288Z,6.65
2023-03-10T03:27:57.314Z,6.65
2023-03-10T03:32:00.199Z,6.65
2023-03-10T03:36:01.874Z,6.72
2023-03-10T03:40:04.037Z,6.78
2023-03-10T03:44:05.559Z,6.81
2023-03-10T03:48:09.381Z,6.80
2023-03-10T03:52:10.962Z,6.80
2023-03-10T03:56:12.450Z,6.91
2023-03-10T04:00:18.577Z,6.88
2023-03-10T04:04:21.353Z,6.92
2023-03-10T04:08:22.892Z,6.96
2023-03-10T04:12:24.529Z,6.86
2023-03-10T04:16:26.112Z,6.90
2023-03-10T04:20:28.966Z,6.93
2023-03-10T04:24:30.412Z,7.04
2023-03-10T04:28:31.896Z,7.06
2023-03-10T04:32:33.544Z,7.08
2023-03-10T04:36:36.428Z,7.26
2023-03-10T04:40:37.913Z,7.34
2023-03-10T04:44:39.406Z,7.29
2023-03-10T04:48:40.944Z,7.22
2023-03-10T04:52:44.315Z,7.34
2023-03-10T04:56:45.777Z,7.34
2023-03-10T05:01:02.140Z,7.36
2023-03-10T05:05:04.712Z,7.37
2023-03-10T05:09:07.591Z,7.42
2023-03-10T05:13:09.117Z,7.41
2023-03-10T05:17:10.704Z,7.47
2023-03-10T05:21:12.961Z,7.44
2023-03-10T05:25:15.739Z,7.43
2023-03-10T05:29:17.270Z,7.50
2023-03-10T05:33:18.737Z,7.64
2023-03-10T05:37:20.351Z,7.67
2023-03-10T05:41:23.243Z,7.72
2023-03-10T05:45:24.926Z,7.70
2023-03-10T05:49:26.628Z,7.66
2023-03-10T05:53:28.343Z,7.68
2023-03-10T05:57:31.182Z,7.75
2023-03-10T06:01:32.985Z,7.71
2023-03-10T06:05:34.428Z,7.73
2023-03-10T06:09:35.911Z,7.74
2023-03-10T06:13:38.773Z,7.80
2023-03-10T06:17:40.239Z,7.73
2023-03-10T06:21:41.706Z,7.78
2023-03-10T06:25:43.218Z,7.96
2023-03-10T06:29:46.006Z,7.89
2023-03-10T06:33:47.739Z,7.96
2023-03-10T06:37:49.209Z,7.96
2023-03-10T06:41:50.697Z,7.98
2023-03-10T06:45:53.639Z,8.04
2023-03-10T06:49:55.300Z,8.08
2023-03-10T06:53:56.765Z,8.13
2023-03-10T06:57:58.236Z,8.26
2023-03-10T07:02:01.023Z,8.32
2023-03-10T07:06:02.516Z,8.36
2023-03-10T07:10:07.762Z,8.46
2023-03-10T07:14:09.735Z,8.52
2023-03-10T07:18:13.163Z,8.64
2023-03-10T07:22:14.695Z,8.65
2023-03-10T07:26:17.294Z,8.66
2023-03-10T07:30:19.078Z,8.59
2023-03-10T07:34:21.879Z,8.60
2023-03-10T07:38:23.460Z,8.70
2023-03-10T07:42:27.955Z,8.66
2023-03-10T07:46:30.172Z,8.68
2023-03-10T07:50:33.726Z,8.74
2023-03-10T07:54:35.787Z,8.85
2023-03-10T07:58:38.056Z,8.99
2023-03-10T08:02:40.898Z,9.12
2023-03-10T08:06:45.213Z,9.13
2023-03-10T08:10:46.856Z,9.30
2023-03-10T08:14:48.725Z,9.40
2023-03-10T08:18:50.842Z,9.61
2023-03-10T08:22:53.968Z,9.84
2023-03-10T08:26:55.474Z,9.95
2023-03-10T08:31:04.859Z,10.13
2023-03-10T08:35:08.273Z,10.26
2023-03-10T08:39:12.438Z,10.29
2023-03-10T08:43:14.054Z,10.45
2023-03-10T08:47:15.756Z,10.51
2023-03-10T08:51:18.546Z,10.61
2023-03-10T08:55:21.514Z,10.79
2023-03-10T08:59:23.131Z,11.11
2023-03-10T09:03:24.971Z,11.38
2023-03-10T09:07:26.552Z,11.82
2023-03-10T09:11:31.636Z,11.77
2023-03-10T09:15:33.766Z,11.62
2023-03-10T09:19:35.307Z,11.84
2023-03-10T09:23:37.411Z,12.10
2023-03-10T09:27:40.329Z,12.04
2023-03-10T09:31:42.151Z,12.15
2023-03-10T09:35:52.440Z,12.08
2023-03-10T09:39:54.612Z,12.21
2023-03-10T09:44:02.540Z,12.28
2023-03-10T09:48:12.626Z,12.48
2023-03-10T09:52:21.076Z,12.64
2023-03-10T09:56:29.715Z,13.02
2023-03-10T10:00:37.845Z,13.01
2023-03-10T10:04:41.602Z,13.01
2023-03-10T10:08:54.902Z,13.43
2023-03-10T10:13:13.678Z,13.68
2023-03-10T10:17:28.920Z,13.64
2023-03-10T10:21:42.619Z,13.17
2023-03-10T10:25:44.565Z,12.92
2023-03-10T10:29:46.000Z,12.88
2023-03-10T10:33:57.911Z,12.94
2023-03-10T10:38:01.719Z,12.89
2023-03-10T10:42:14.061Z,12.79
2023-03-10T10:46:23.023Z,12.87
2023-03-10T10:50:28.316Z,12.76
2023-03-10T10:54:36.759Z,12.89
2023-03-10T10:58:39.889Z,12.78
2023-03-10T11:02:41.392Z,12.69
2023-03-10T11:06:44.682Z,12.76
2023-03-10T11:10:55.001Z,12.85
2023-03-10T11:15:09.308Z,12.64
2023-03-10T11:19:21.727Z,12.43
2023-03-10T11:23:31.059Z,12.42
2023-03-10T11:27:46.240Z,12.49
2023-03-10T11:31:55.038Z,12.69
2023-03-10T11:36:09.913Z,12.57
2023-03-10T11:40:19.391Z,12.83
2023-03-10T11:44:27.978Z,12.83
2023-03-10T11:48:48.988Z,12.95
2023-03-10T11:52:54.189Z,13.04
2023-03-10T11:56:58.218Z,13.44
2023-03-10T12:01:00.567Z,13.93
2023-03-10T12:05:07.818Z,13.52
2023-03-10T12:09:18.199Z,14.45
2023-03-10T12:13:25.365Z,14.51
2023-03-10T12:17:27.497Z,14.20
2023-03-10T12:21:30.951Z,13.97
2023-03-10T12:25:44.037Z,13.64
2023-03-10T12:29:47.256Z,13.40
2023-03-10T12:33:52.714Z,13.07
2023-03-10T12:38:27.382Z,12.90
2023-03-10T12:42:32.116Z,12.89
2023-03-10T12:46:47.835Z,13.11
2023-03-10T12:50:54.566Z,13.08
2023-03-10T12:55:05.382Z,12.91
2023-03-10T12:59:16.936Z,12.72
2023-03-10T13:03:27.403Z,12.70
2023-03-10T13:07:30.155Z,12.80
2023-03-10T13:11:36.394Z,13.08
2023-03-10T13:15:37.817Z,13.47
2023-03-10T13:19:40.577Z,14.94
2023-03-10T13:23:43.321Z,15.35
2023-03-10T13:27:44.760Z,16.17
2023-03-10T13:31:53.051Z,17.69
2023-03-10T13:35:56.304Z,16.92
2023-03-10T13:40:07.446Z,15.38
2023-03-10T13:44:17.143Z,14.47
2023-03-10T13:48:19.208Z,13.93
2023-03-10T13:52:24.046Z,13.80
2023-03-10T13:56:28.125Z,13.45
2023-03-10T14:00:29.656Z,13.18
2023-03-10T14:04:46.775Z,12.92
2023-03-10T14:08:50.335Z,12.63
2023-03-10T14:12:53.649Z,12.35
2023-03-10T14:16:56.967Z,12.16
2023-03-10T14:21:40.964Z,11.89
2023-03-10T14:25:50.887Z,11.62
2023-03-10T14:29:54.361Z,10.97
2023-03-10T14:33:56.316Z,8.07
2023-03-10T14:37:57.772Z,7.43
2023-03-10T14:42:00.835Z,7.31
2023-03-10T14:46:02.609Z,7.19
2023-03-10T14:50:04.656Z,7.14
2023-03-10T14:54:15.770Z,7.12
2023-03-10T14:58:20.921Z,7.09
2023-03-10T15:02:25.209Z,7.10
2023-03-10T15:06:30.126Z,7.10
2023-03-10T15:10:36.081Z,7.18
2023-03-10T15:14:38.918Z,7.32
2023-03-10T15:18:40.416Z,7.67
2023-03-10T15:22:42.280Z,8.12
2023-03-10T15:26:43.815Z,8.37
2023-03-10T15:30:46.832Z,8.43
2023-03-10T15:34:48.327Z,8.51
2023-03-10T15:38:49.850Z,8.45
2023-03-10T15:42:52.409Z,8.38
2023-03-10T15:46:55.337Z,8.50
2023-03-10T15:50:56.924Z,8.54
2023-03-10T15:54:58.357Z,8.53
2023-03-10T15:58:59.816Z,8.54
2023-03-10T16:03:02.680Z,8.64
2023-03-10T16:07:04.799Z,8.59
2023-03-10T16:11:08.169Z,8.65
2023-03-10T16:15:11.007Z,8.42
2023-03-10T16:19:14.002Z,8.23
2023-03-10T16:23:15.540Z,8.31
2023-03-10T16:27:16.991Z,8.36
2023-03-10T16:31:20.525Z,8.25
2023-03-10T16:35:23.320Z,8.04
2023-03-10T16:39:24.986Z,8.09
2023-03-10T16:43:28.695Z,8.10
2023-03-10T16:47:30.188Z,8.10
2023-03-10T16:51:35.309Z,8.12
2023-03-10T16:55:37.588Z,7.86
2023-03-10T16:59:39.361Z,7.62
2023-03-10T17:03:41.201Z,7.34
2023-03-10T17:07:55.016Z,7.40
2023-03-10T17:11:57.222Z,7.42
2023-03-10T17:15:58.746Z,7.15
2023-03-10T17:20:00.245Z,7.11
2023-03-10T17:24:03.721Z,7.11
2023-03-10T17:28:05.266Z,7.10
2023-03-10T17:32:06.729Z,7.04
2023-03-10T17:36:09.851Z,7.07
2023-03-10T17:40:13.482Z,6.99
2023-03-10T17:44:15.593Z,7.08
2023-03-10T17:48:17.132Z,6.93
2023-03-10T17:52:18.615Z,6.87
2023-03-10T17:56:21.763Z,6.76
2023-03-10T18:00:24.188Z,6.80
2023-03-10T18:04:25.673Z,6.72
2023-03-10T18:08:27.123Z,6.75
2023-03-10T18:12:30.232Z,6.78
2023-03-10T18:16:33.834Z,6.66
2023-03-10T18:20:35.279Z,6.68
2023-03-10T18:24:38.090Z,6.69
2023-03-10T18:28:41.568Z,6.61
2023-03-10T18:32:43.322Z,6.50
2023-03-10T18:36:44.959Z,6.41
2023-03-10T18:40:46.870Z,6.41
2023-03-10T18:44:49.747Z,6.64
2023-03-10T18:48:51.292Z,6.65
2023-03-10T18:52:52.835Z,6.81
2023-03-10T18:56:54.346Z,6.79
2023-03-10T19:00:57.447Z,6.69
2023-03-10T19:04:59.096Z,6.58
2023-03-10T19:09:01.335Z,6.58
2023-03-10T19:13:03.330Z,6.58
2023-03-10T19:17:06.291Z,6.51
2023-03-10T19:21:07.945Z,6.46
2023-03-10T19:25:11.553Z,6.69
2023-03-10T19:29:13.080Z,6.68
2023-03-10T19:33:16.026Z,6.69
2023-03-10T19:37:17.733Z,6.90
2023-03-10T19:41:19.881Z,6.95
2023-03-10T19:45:21.661Z,7.03
2023-03-10T19:49:24.702Z,7.15
2023-03-10T19:53:27.987Z,7.18
2023-03-10T19:57:29.570Z,7.17
2023-03-10T20:01:31.036Z,7.20
2023-03-10T20:05:33.932Z,7.37
2023-03-10T20:09:35.655Z,7.35
2023-03-10T20:13:37.331Z,7.24
2023-03-10T20:17:39.141Z,7.04
2023-03-10T20:21:42.096Z,6.96
2023-03-10T20:25:44.605Z,6.78
2023-03-10T20:29:46.090Z,6.82
2023-03-10T20:33:51.086Z,6.83
2023-03-10T20:37:54.113Z,6.83
2023-03-10T20:41:55.619Z,6.84
2023-03-10T20:45:57.166Z,6.67
2023-03-10T20:49:58.868Z,6.47
2023-03-10T20:54:01.735Z,6.36
2023-03-10T20:58:03.219Z,6.25
2023-03-10T21:02:04.884Z,6.28
2023-03-10T21:06:06.696Z,6.04
2023-03-10T21:10:11.833Z,5.92
2023-03-10T21:14:13.386Z,5.77
2023-03-10T21:18:14.864Z,5.66
2023-03-10T21:22:16.453Z,5.63
2023-03-10T21:26:20.805Z,5.49
2023-03-10T21:30:22.303Z,5.45
2023-03-10T21:34:23.760Z,5.40
2023-03-10T21:38:25.290Z,5.41
2023-03-10T21:42:28.119Z,5.33
2023-03-10T21:46:30.084Z,5.27
2023-03-10T21:50:32.108Z,5.24
2023-03-10T21:54:33.626Z,5.13
2023-03-10T21:58:36.990Z,5.22
2023-03-10T22:02:38.473Z,5.19
2023-03-10T22:06:39.973Z,5.16
2023-03-10T22:10:41.491Z,5.20
2023-03-10T22:14:44.301Z,5.15
2023-03-10T22:18:46.203Z,5.12
2023-03-10T22:22:48.081Z,5.09
2023-03-10T22:26:49.561Z,4.95
2023-03-10T22:30:52.457Z,4.88
2023-03-10T22:34:53.983Z,4.79
2023-03-10T22:38:55.500Z,4.68
2023-03-10T22:42:57.209Z,4.60
2023-03-10T22:47:00.024Z,4.56
2023-03-10T22:51:06.325Z,4.50
2023-03-10T22:55:10.207Z,4.46
2023-03-10T22:59:11.631Z,4.39
2023-03-10T23:03:14.519Z,4.36
2023-03-10T23:07:16.003Z,4.18
2023-03-10T23:11:17.620Z,4.22
2023-03-10T23:15:25.367Z,4.20
2023-03-10T23:19:28.524Z,4.14
2023-03-10T23:23:29.976Z,4.08
2023-03-10T23:27:31.491Z,4.00
2023-03-10T23:31:33.000Z,3.81
2023-03-10T23:35:36.213Z,2.73
2023-03-10T23:39:37.712Z,2.24
2023-03-10T23:43:39.326Z,2.00
2023-03-10T23:47:41.506Z,1.70
2023-03-10T23:51:44.477Z,1.31
2023-03-10T23:55:46.767Z,1.06
2023-03-10T23:59:48.338Z,1.00
